Friday, July 20, 2018, 11:44 AM CDT
Back to Local

KCNK, Concordia, Blosser Municipal Airport

Location: Concordia, KS, United States Lat: 39.551
Local Time: 11:44 AM CDT (16:44 GMT) Lon: -97.651
Time Zone: US/Central Elev: 1486 ft

Show me the last for .
Show Decoded

2018-07-20 10:55 METAR KCNK 201555Z AUTO 11009KT 10SM CLR 27/21 A2992 RMK AO2 SLP114 T02720206 =
2018-07-20 09:55 METAR KCNK 201455Z AUTO 08011KT 10SM CLR 26/20 A2991 RMK AO2 SLP112 T02560200
                 50005 =
2018-07-20 08:55 METAR KCNK 201355Z AUTO 09007KT 10SM CLR 24/20 A2991 RMK AO2 SLP112 T02390200 =
2018-07-20 07:55 METAR KCNK 201255Z AUTO 08006KT 10SM CLR 22/21 A2991 RMK AO2 SLP111 T02170206 =
2018-07-20 07:02 METAR KCNK 201202Z AUTO 11003KT 4SM BR CLR 19/19 A2990 RMK AO2 T01940194 =
2018-07-20 06:55 METAR KCNK 201155Z AUTO 00000KT 2 1/2SM BR CLR 19/19 A2990 RMK AO2 SLP107
                 T01940194 10228 20189 53004 =
2018-07-20 06:47 METAR KCNK 201147Z AUTO 00000KT 1/2SM FG CLR 19/19 A2989 RMK AO2 T01890189 =
2018-07-20 06:39 METAR KCNK 201139Z AUTO 00000KT 1 1/4SM BR CLR 19/19 A2989 =
2018-07-20 06:33 METAR KCNK 201133Z AUTO 00000KT 1 3/4SM BR CLR 19/19 A2990 RMK AO2 T01890189 =
2018-07-20 06:08 METAR KCNK 201108Z AUTO 04004KT 5SM BR FEW002 19/19 A2990 RMK AO2 T01940194 =
2018-07-20 06:00 METAR KCNK 201100Z AUTO 05004KT 2SM BR SCT002 19/19 A2990 =
2018-07-20 05:57 METAR KCNK 201057Z AUTO 05004KT 1 1/2SM BR SCT002 19/19 A2990 =
2018-07-20 05:55 METAR KCNK 201055Z AUTO 05004KT 1SM BR VV002 19/19 A2990 RMK AO2 SLP107
                 T01890189 =
2018-07-20 04:55 METAR KCNK 200955Z AUTO 00000KT 1/4SM FG BKN001 19/19 A2989 RMK AO2 SLP103
                 T01940194 =
2018-07-20 04:49 METAR KCNK 200949Z AUTO 11003KT 3/4SM BR BKN002 20/20 A2989 RMK AO2 =
2018-07-20 04:46 METAR KCNK 200946Z AUTO 12003KT 1 1/2SM BR BKN002 21/21 A2989 RMK AO2 T02060206
                 =
2018-07-20 04:42 METAR KCNK 200942Z AUTO 00000KT 1 3/4SM BR SCT002 21/21 A2989 RMK AO2 T02060206
                 =
2018-07-20 04:30 METAR KCNK 200930Z AUTO 06004KT 3SM BR FEW002 21/21 A2989 RMK AO2 T02060206 =
2018-07-20 04:26 METAR KCNK 200926Z AUTO 05003KT 2 1/2SM BR CLR 21/21 A2989 RMK AO2 T02060206 =
2018-07-20 03:55 METAR KCNK 200855Z AUTO 03004KT 3SM BR CLR 21/21 A2988 RMK AO2 SLP103 T02110211
                 51004 =
2018-07-20 03:48 METAR KCNK 200848Z AUTO 00000KT 2 1/2SM BR CLR 21/21 A2989 RMK AO2 T02110211 =
2018-07-20 03:25 METAR KCNK 200825Z AUTO 00000KT 5SM BR CLR 22/22 A2989 RMK AO2 T02170217 =
2018-07-20 03:16 METAR KCNK 200816Z AUTO 18005KT 2 1/2SM BR CLR 22/22 A2988 RMK AO2 T02170217 =
2018-07-20 02:55 METAR KCNK 200755Z AUTO 15003KT 4SM BR CLR 21/21 A2988 RMK AO2 SLP105 T02060206
                 =
2018-07-20 02:50 METAR KCNK 200750Z AUTO 12003KT 3SM BR FEW003 21/21 A2988 =
2018-07-20 02:47 METAR KCNK 200747Z AUTO 15003KT 1 3/4SM BR FEW003 21/21 A2988 RMK AO2 T02060206
                 =
2018-07-20 02:45 METAR KCNK 200745Z AUTO 00000KT 1 1/4SM BR FEW003 21/21 A2988 RMK AO2 T02060206
                 =
2018-07-20 02:30 METAR KCNK 200730Z AUTO 00000KT 3/4SM BR VV003 20/20 A2988 =
2018-07-20 02:24 METAR KCNK 200724Z AUTO 00000KT 1 1/2SM BR CLR 20/20 A2988 RMK AO2 T02000200 =
2018-07-20 01:55 METAR KCNK 200655Z AUTO 05004KT 6SM BR CLR 20/20 A2988 RMK AO2 SLP106 T02000200
                 =
2018-07-20 00:55 METAR KCNK 200555Z AUTO 00000KT 10SM CLR 22/22 A2987 RMK AO2 SLP098 T02220217
                 10317 20217 403330217 58001 =
2018-07-19 23:55 METAR KCNK 200455Z AUTO 00000KT 10SM CLR 23/22 A2987 RMK AO2 SLP099 T02280222 =
2018-07-19 22:55 METAR KCNK 200355Z AUTO 16003KT 10SM CLR 23/22 A2987 RMK AO2 SLP098 T02330217 =
2018-07-19 21:55 METAR KCNK 200255Z AUTO 00000KT 10SM CLR 26/22 A2987 RMK AO2 SLP097 T02610222
                 53017 =
2018-07-19 20:55 METAR KCNK 200155Z AUTO 00000KT 10SM CLR 27/23 A2985 RMK AO2 SLP090 T02670228 =
2018-07-19 19:55 METAR KCNK 200055Z AUTO 20004KT 10SM CLR 30/22 A2983 RMK AO2 SLP083 T03000222 =
2018-07-19 18:55 METAR KCNK 192355Z AUTO 17003KT 10SM CLR 31/23 A2982 RMK AO2 SLP081 60000
                 T03110228 10333 20228 56010 =
2018-07-19 17:55 METAR KCNK 192255Z AUTO 07004KT 10SM CLR 32/20 A2983 RMK AO2 SLP082 T03220200 =
2018-07-19 16:55 METAR KCNK 192155Z AUTO 00000KT 10SM CLR 32/22 A2984 RMK AO2 LTG DSNT SE SLP085
                 T03170222 =
2018-07-19 16:23 METAR KCNK 192123Z AUTO 00000KT 10SM FEW110 31/22 A2985 RMK AO2 LTG DSNT S AND
                 SW T03060217 =
2018-07-19 16:08 METAR KCNK 192108Z AUTO 00000KT 10SM VCTS FEW120 31/23 A2985 RMK AO2 T03110228 =
2018-07-19 15:55 METAR KCNK 192055Z AUTO 30004KT 10SM FEW120 30/23 A2985 RMK AO2 LTG DSNT SE
                 SLP092 60000 T03000228 50000 =
2018-07-19 15:45 METAR KCNK 192045Z AUTO 26004KT 10SM SCT120 29/23 A2985 RMK AO2 LTG DSNT SE
                 T02890233 =
2018-07-19 15:18 METAR KCNK 192018Z AUTO 24008KT 10SM VCTS FEW120 28/22 A2987 RMK AO2 T02780222 =
2018-07-19 14:55 METAR KCNK 191955Z AUTO 28005KT 10SM CLR 28/21 A2986 RMK AO2 TSE04 SLP096
                 T02780211 =
2018-07-19 14:20 METAR KCNK 191920Z AUTO 00000KT 10SM CLR 24/21 A2989 RMK AO2 LTG DSNT E AND SE
                 TSE04 T02440206 =
2018-07-19 14:10 METAR KCNK 191910Z AUTO 00000KT 10SM VCTS CLR 23/21 A2989 RMK AO2 LTG DSNT E-S
                 TSE04 T02330211 =
2018-07-19 13:55 METAR KCNK 191855Z AUTO 22015G28KT 10SM TS FEW037 SCT050 SCT080 23/21 A2991 RMK
                 AO2 PK WND 24033/1840 WSHFT 1821 LTG DSNT E-SW RAB40E55 TSB21 SLP113 P0000
                 T02280206 =
2018-07-19 13:41 METAR KCNK 191841Z AUTO 24023G33KT 10SM -TSRA FEW036 SCT055 BKN080 24/19 A2993 =
2018-07-19 13:27 METAR KCNK 191827Z AUTO 21021G31KT 10SM TS FEW032 FEW039 SCT095 26/20 A2990 RMK
                 AO2 PK WND 21031/1827 LTG DSNT SE-W TSB21 T02560200 =
2018-07-19 13:14 METAR KCNK 191814Z AUTO 32006KT 10SM VCTS CLR 29/24 A2986 RMK AO2 LTG DSNT S-W
                 T02940239 =
2018-07-19 12:55 METAR KCNK 191755Z AUTO 35007KT 10SM FEW080 30/23 A2985 RMK AO2 LTG DSNT S-W
                 SLP091 T03000233 10328 20228 58005 =
2018-07-19 11:55 METAR KCNK 191655Z AUTO 31008KT 10SM CLR 32/24 A2986 RMK AO2 SLP092 T03170244 =

Support USWX by starting your Amazon purchase here.